^^
Datos históricos de la estación: Murcia-Puente Tocinos
Diario Informe para Junio 14, 2018 Unidades:  Inglés    Métrico   Ambas
Diario Semanal Mensual Anual Configurable
  Máximo: Mínimo: Media:
Temperatura: 86.2 °F 67.5 °F 76.5 °F
Punto de rocio: 62.8 °F 45.9 °F 58.1 °F
Humedad: 81% 25% 56%
Velocidad viento: 13.5mph 1.4mph 6.6mph
Racha viento: 20.7mph - -
Viento- - SE
Presión: 29.9 in 29.8 in -
Precipitación: 0 in    
Historical Graphs
 
 
Tabla de datos para Junio 14, 2018
Hora Temperatura Punto de rocio Presión Viento Velocidad viento Racha viento Humedad Intensidad lluvia(por hora) Nubes
00:00 69.3 °F 62.4 °F 29.9 in NNE 5 mph 9 mph 79% 0 in CLR
00:10 69.3 °F 62.8 °F 29.9 in NNE 5 mph 9 mph 80% 0 in CLR
00:15 69.1 °F 62.6 °F 29.9 in NE 4.3 mph 5.8 mph 80% 0 in CLR
00:20 69.1 °F 62.6 °F 29.9 in ENE 3.1 mph 5.4 mph 80% 0 in CLR
00:25 69.1 °F 62.6 °F 29.9 in NE 3 mph 7 mph 80% 0 in CLR
00:30 68.9 °F 62.4 °F 29.9 in NE 3.6 mph 5.8 mph 80% 0 in CLR
00:35 68.7 °F 62.4 °F 29.9 in NNE 3 mph 6 mph 80% 0 in CLR
00:40 68.7 °F 62.2 °F 29.9 in NNE 3.1 mph 2.3 mph 80% 0 in CLR
00:45 68.7 °F 62.2 °F 29.9 in NNE 3 mph 7 mph 80% 0 in CLR
00:50 68.5 °F 62.1 °F 29.9 in NE 3.6 mph 6.9 mph 80% 0 in CLR
00:55 68.5 °F 62.1 °F 29.9 in NE 3 mph 9 mph 80% 0 in CLR
01:00 68.4 °F 61.9 °F 29.9 in NE 3 mph 6 mph 80% 0 in CLR
01:05 68.4 °F 61.9 °F 29.9 in NE 4 mph 4.6 mph 80% 0 in CLR
01:10 68.4 °F 61.9 °F 29.9 in ENE 3.1 mph 3.5 mph 80% 0 in CLR
01:15 68.4 °F 61.9 °F 29.9 in NE 3.1 mph 4.6 mph 80% 0 in CLR
01:20 68.2 °F 61.9 °F 29.9 in North 2.4 mph 6.9 mph 80% 0 in CLR
01:25 68.2 °F 61.9 °F 29.9 in NNE 2.4 mph 5.8 mph 80% 0 in CLR
01:30 68.2 °F 61.9 °F 29.9 in NE 3.6 mph 5.4 mph 80% 0 in CLR
01:31 68.2 °F 61.9 °F 29.9 in NNE 3.6 mph 6.9 mph 80% 0 in CLR
01:45 67.8 °F 61.3 °F 29.9 in NNE 4 mph 4.7 mph 80% 0 in CLR
01:50 67.8 °F 61.3 °F 29.9 in NNE 3.1 mph 6.9 mph 80% 0 in CLR
01:55 67.6 °F 61.5 °F 29.9 in ENE 3.1 mph 5.8 mph 81% 0 in CLR
02:00 67.6 °F 61.5 °F 29.9 in NE 3 mph 6 mph 81% 0 in CLR
02:02 67.6 °F 61.5 °F 29.9 in NE 3.6 mph 5.8 mph 81% 0 in CLR
07:49 67.5 °F 61.2 °F 29.9 in WSW 2 mph 5.8 mph 80% 0 in CLR
07:54 67.6 °F 61 °F 29.9 in West 2 mph 2.3 mph 79% 0 in CLR
07:59 68 °F 61.2 °F 29.9 in WSW 2.9 mph 3.6 mph 79% 0 in CLR
08:04 68.2 °F 61.2 °F 29.9 in WSW 2.9 mph 5.8 mph 78% 0 in CLR
08:09 68.2 °F 61.2 °F 29.9 in SW 2.9 mph 4.6 mph 78% 0 in CLR
08:14 68.2 °F 61.2 °F 29.9 in West 2.9 mph 4.6 mph 78% 0 in CLR
08:19 68.2 °F 61.2 °F 29.9 in WSW 2.9 mph 6.9 mph 78% 0 in CLR
08:24 68.4 °F 61.2 °F 29.9 in West 4 mph 4.6 mph 78% 0 in CLR
08:29 68.5 °F 61 °F 29.9 in WSW 4 mph 4.6 mph 77% 0 in CLR
08:34 68.9 °F 61.3 °F 29.9 in WSW 3.1 mph 6.2 mph 77% 0 in CLR
08:39 69.1 °F 61.2 °F 29.9 in WSW 3.1 mph 5.8 mph 76% 0 in CLR
08:44 69.1 °F 61.2 °F 29.9 in WSW 3.1 mph 5.8 mph 76% 0 in CLR
08:49 69.3 °F 61.3 °F 29.9 in SW 4 mph 5.8 mph 76% 0 in CLR
08:54 69.4 °F 61.2 °F 29.9 in SW 4 mph 5.8 mph 75% 0 in CLR
08:59 69.6 °F 61.3 °F 29.9 in SW 4 mph 4.3 mph 75% 0 in CLR
09:04 70.2 °F 61.5 °F 29.9 in SW 2.9 mph 3.5 mph 74% 0 in CLR
09:09 70.7 °F 60.1 °F 29.9 in WSW 2.9 mph 4.6 mph 69% 0 in CLR
09:14 70.9 °F 59.4 °F 29.9 in WSW 2.9 mph 4.6 mph 67% 0 in CLR
09:19 71.1 °F 58.3 °F 29.9 in WSW 2.9 mph 8.1 mph 64% 0 in CLR
09:24 71.4 °F 58.3 °F 29.9 in SSW 4 mph 5.8 mph 63% 0 in CLR
09:29 71.8 °F 58.1 °F 29.9 in West 4 mph 6.9 mph 62% 0 in CLR
09:34 71.8 °F 57.6 °F 29.9 in SW 4 mph 5.8 mph 61% 0 in CLR
09:39 72 °F 57.7 °F 29.9 in WSW 4.3 mph 6.9 mph 61% 0 in CLR
09:44 72.1 °F 56.1 °F 29.9 in West 3.6 mph 6.9 mph 57% 0 in CLR
09:49 72.7 °F 56.7 °F 29.9 in WSW 3.6 mph 2.3 mph 57% 0 in CLR
09:54 73.2 °F 55.6 °F 29.9 in WSW 3.6 mph 5.8 mph 54% 0 in CLR
09:59 73.8 °F 56.1 °F 29.9 in NNW 2.9 mph 8.1 mph 54% 0 in CLR
10:04 74.1 °F 56.8 °F 29.9 in South 4 mph 4.6 mph 55% 0 in CLR
10:09 74.1 °F 55.9 °F 29.9 in West 4 mph 6.9 mph 53% 0 in CLR
10:14 74.5 °F 55.8 °F 29.9 in NW 3.6 mph 4.6 mph 52% 0 in CLR
10:19 74.8 °F 55.6 °F 29.9 in SW 3.6 mph 4.6 mph 51% 0 in CLR
10:24 75.4 °F 54.9 °F 29.9 in SE 3.6 mph 4.6 mph 49% 0 in CLR
10:29 75.7 °F 55.2 °F 29.9 in SW 3.6 mph 5.2 mph 49% 0 in CLR
10:34 76.3 °F 55 °F 29.9 in SSW 3.1 mph 5.8 mph 48% 0 in CLR
10:39 76.5 °F 54.7 °F 29.9 in WSW 3.1 mph 5.8 mph 47% 0 in CLR
10:44 76.6 °F 54.9 °F 29.9 in SSW 3.6 mph 5.8 mph 47% 0 in CLR
10:49 76.8 °F 54.5 °F 29.9 in SSW 3.6 mph 5.8 mph 46% 0 in CLR
10:54 77.2 °F 55.4 °F 29.9 in ESE 3.1 mph 3.5 mph 47% 0 in CLR
10:59 77.5 °F 54.5 °F 29.9 in West 3.1 mph 4.6 mph 45% 0 in CLR
11:04 78.4 °F 54.7 °F 29.9 in West 1.4 mph 3.6 mph 44% 0 in CLR
11:09 78.8 °F 53.8 °F 29.9 in West 1.4 mph 3.5 mph 42% 0 in CLR
11:14 79 °F 53.2 °F 29.9 in WNW 3.1 mph 4.6 mph 41% 0 in CLR
11:19 79.3 °F 52.9 °F 29.9 in ENE 3.1 mph 8.1 mph 40% 0 in CLR
11:24 79.5 °F 53.1 °F 29.9 in East 3.1 mph 4.6 mph 40% 0 in CLR
11:29 79.9 °F 54.1 °F 29.9 in South 3.1 mph 4.6 mph 41% 0 in CLR
11:34 80.1 °F 53.6 °F 29.9 in WNW 3.1 mph 3.5 mph 40% 0 in CLR
11:39 80.4 °F 52.5 °F 29.9 in SW 3.1 mph 9.2 mph 38% 0 in CLR
11:44 80.2 °F 52.3 °F 29.9 in South 4.7 mph 6.9 mph 38% 0 in CLR
11:49 80.4 °F 51.8 °F 29.9 in NE 4.7 mph 4.3 mph 37% 0 in CLR
11:54 81 °F 51.4 °F 29.9 in NE 2.4 mph 4 mph 36% 0 in CLR
11:59 81.1 °F 51.6 °F 29.9 in WSW 2.4 mph 5.8 mph 36% 0 in CLR
12:04 81.1 °F 51.6 °F 29.9 in South 4 mph 6.9 mph 36% 0 in CLR
12:09 81.5 °F 51.3 °F 29.9 in West 4 mph 6.4 mph 35% 0 in CLR
12:14 81.3 °F 51.1 °F 29.9 in WNW 4 mph 8.1 mph 35% 0 in CLR
12:19 81.5 °F 51.3 °F 29.9 in West 4.3 mph 5.8 mph 35% 0 in CLR
12:24 81.7 °F 49.8 °F 29.9 in NW 4.3 mph 8.1 mph 33% 0 in CLR
12:29 82 °F 49.3 °F 29.9 in NW 4.3 mph 4.6 mph 32% 0 in CLR
12:34 82 °F 48.4 °F 29.9 in SSW 4 mph 5.8 mph 31% 0 in CLR
12:39 82.2 °F 48.6 °F 29.9 in WNW 4 mph 8.1 mph 31% 0 in CLR
12:44 82.9 °F 49.3 °F 29.9 in ENE 4 mph 5.8 mph 31% 0 in CLR
12:49 83.1 °F 49.3 °F 29.9 in West 4 mph 5.9 mph 31% 0 in CLR
12:54 83.1 °F 49.3 °F 29.9 in West 4 mph 4.6 mph 31% 0 in CLR
12:59 83.7 °F 49.8 °F 29.9 in WNW 4 mph 8.1 mph 31% 0 in CLR
13:04 83.7 °F 49.8 °F 29.9 in NW 6.2 mph 10.4 mph 31% 0 in CLR
13:09 83.7 °F 48.9 °F 29.9 in NW 6.2 mph 10.4 mph 30% 0 in CLR
13:14 83.8 °F 50 °F 29.9 in NE 6.2 mph 6.9 mph 31% 0 in CLR
13:19 84.2 °F 49.5 °F 29.9 in North 4.7 mph 12.7 mph 30% 0 in FEW
13:24 84.4 °F 49.6 °F 29.9 in West 5.9 mph 5.8 mph 30% 0 in FEW
13:29 84.7 °F 48.9 °F 29.9 in West 5.9 mph 19.6 mph 29% 0 in FEW
13:34 84.9 °F 49.1 °F 29.9 in NW 5.9 mph 9.2 mph 29% 0 in FEW
13:39 84.9 °F 49.1 °F 29.9 in NW 7.6 mph 10.4 mph 29% 0 in FEW
13:44 84.7 °F 48.9 °F 29.9 in NW 8.1 mph 15 mph 29% 0 in FEW
13:49 84.9 °F 48.2 °F 29.9 in NW 8.1 mph 14.5 mph 28% 0 in FEW
13:54 85.5 °F 46.8 °F 29.9 in NW 10.7 mph 18.4 mph 26% 0 in FEW
13:59 85.3 °F 46.6 °F 29.9 in WSW 10.7 mph 11.5 mph 26% 0 in FEW
14:04 85.8 °F 45.9 °F 29.9 in West 7.4 mph 10.7 mph 25% 0 in FEW
14:09 86.2 °F 47.3 °F 29.9 in NW 7.4 mph 15 mph 26% 0 in FEW
14:14 86.2 °F 47.3 °F 29.9 in WNW 9.2 mph 13.8 mph 26% 0 in FEW
14:19 86.2 °F 48.4 °F 29.9 in WNW 9.2 mph 18.4 mph 27% 0 in FEW
14:21 86.2 °F 47.3 °F 29.9 in West 9.2 mph 18.4 mph 26% 0 in FEW
14:54 84.6 °F 54.7 °F 29.8 in SE 11.8 mph 18.4 mph 36% 0 in FEW
14:59 84.2 °F 54.3 °F 29.8 in ESE 11.8 mph 12.7 mph 36% 0 in FEW
15:04 84.6 °F 55.4 °F 29.8 in ENE 8.1 mph 11.5 mph 37% 0 in FEW
15:09 84.2 °F 56.7 °F 29.8 in NE 8.1 mph 17.3 mph 39% 0 in FEW
15:14 83.8 °F 56.8 °F 29.8 in ENE 11.2 mph 18.4 mph 40% 0 in FEW
15:19 83.3 °F 57 °F 29.9 in ENE 11.2 mph 20.7 mph 41% 0 in FEW
15:24 82.6 °F 57.7 °F 29.9 in ENE 13.5 mph 20.7 mph 43% 0 in FEW
15:29 82 °F 57.9 °F 29.9 in North 13.5 mph 17.3 mph 44% 0 in FEW
15:34 82 °F 57.9 °F 29.9 in ENE 12.3 mph 20.7 mph 44% 0 in FEW
15:39 81.7 °F 57.6 °F 29.9 in ENE 12.3 mph 18.4 mph 44% 0 in FEW
15:44 81.5 °F 57.6 °F 29.9 in NE 11.4 mph 17.3 mph 44% 0 in FEW
15:49 81.5 °F 58.1 °F 29.9 in ENE 11.4 mph 18.4 mph 45% 0 in FEW
15:54 81.9 °F 57.7 °F 29.9 in NE 10.7 mph 17.5 mph 44% 0 in FEW
15:59 81.7 °F 57.6 °F 29.9 in North 10.7 mph 19.6 mph 44% 0 in FEW
16:04 81.9 °F 57.7 °F 29.9 in NE 10.7 mph 12.7 mph 44% 0 in FEW
16:09 81.7 °F 58.3 °F 29.9 in NE 10.7 mph 18.4 mph 45% 0 in FEW
16:14 81.7 °F 58.8 °F 29.9 in North 11.2 mph 20.7 mph 46% 0 in FEW
16:19 81.7 °F 58.3 °F 29.9 in NE 11.2 mph 18.4 mph 45% 0 in CLR
16:24 81.3 °F 58.6 °F 29.9 in NE 13 mph 18.4 mph 46% 0 in CLR
16:29 81.3 °F 57.9 °F 29.9 in NE 13 mph 20.1 mph 45% 0 in CLR
16:34 81.1 °F 58.5 °F 29.9 in ESE 13 mph 16.1 mph 46% 0 in CLR
16:39 81.7 °F 58.8 °F 29.9 in NE 11.4 mph 13.8 mph 46% 0 in CLR
16:44 81.1 °F 59.5 °F 29.9 in NE 11.4 mph 18.4 mph 48% 0 in CLR
16:49 81.3 °F 59.2 °F 29.9 in NE 11.2 mph 18.4 mph 47% 0 in CLR
16:54 81.5 °F 59.4 °F 29.9 in NE 11.2 mph 18.4 mph 47% 0 in CLR
16:59 81.1 °F 60.3 °F 29.9 in NE 11.2 mph 18.4 mph 49% 0 in CLR
17:04 81.9 °F 60.3 °F 29.9 in East 11.2 mph 13.8 mph 48% 0 in CLR
17:09 82 °F 59.2 °F 29.9 in ENE 10 mph 17.3 mph 46% 0 in CLR
17:14 81.9 °F 59.7 °F 29.9 in SE 10 mph 10.4 mph 47% 0 in CLR
17:19 82.2 °F 59.4 °F 29.9 in ESE 8.5 mph 15 mph 46% 0 in CLR
17:24 82 °F 59.2 °F 29.9 in ESE 8.7 mph 9.7 mph 46% 0 in CLR
17:29 81.9 °F 59.2 °F 29.9 in East 8.7 mph 10.2 mph 46% 0 in CLR
17:34 81.9 °F 59.7 °F 29.9 in East 8.1 mph 11.5 mph 47% 0 in CLR
17:39 82.2 °F 59.4 °F 29.9 in SE 8.1 mph 11.8 mph 46% 0 in CLR
17:44 82.6 °F 59.7 °F 29.9 in ESE 5.9 mph 13.7 mph 46% 0 in CLR
17:49 81.9 °F 59.7 °F 29.9 in East 5.9 mph 11.4 mph 47% 0 in CLR
17:54 81.5 °F 59.9 °F 29.9 in SE 5.9 mph 12.7 mph 48% 0 in CLR
17:59 82 °F 59.7 °F 29.9 in ESE 8.1 mph 11.5 mph 47% 0 in CLR
18:04 81.9 °F 60.3 °F 29.9 in ENE 8.1 mph 10.4 mph 48% 0 in CLR
18:09 81.7 °F 60.1 °F 29.9 in ENE 6.4 mph 13.8 mph 48% 0 in CLR
18:14 81.5 °F 59.9 °F 29.9 in ESE 7.4 mph 13.8 mph 48% 0 in CLR
18:19 81.9 °F 60.3 °F 29.9 in East 7.4 mph 15 mph 48% 0 in CLR
18:24 81 °F 61.7 °F 29.9 in East 7.4 mph 15 mph 52% 0 in CLR
18:29 80.2 °F 60.4 °F 29.9 in ENE 8.1 mph 13.8 mph 51% 0 in CLR
18:34 80.4 °F 61.2 °F 29.9 in NNE 8.1 mph 12.7 mph 52% 0 in CLR
18:39 80.1 °F 60.8 °F 29.9 in NE 10 mph 15 mph 52% 0 in CLR
18:44 79.3 °F 61.2 °F 29.9 in East 12.5 mph 18.4 mph 54% 0 in CLR
18:49 79.3 °F 61.2 °F 29.9 in ENE 12.5 mph 12.7 mph 54% 0 in CLR
18:54 79.3 °F 61.2 °F 29.9 in NE 10 mph 17.3 mph 54% 0 in CLR
18:59 79 °F 61 °F 29.9 in NE 10 mph 16.1 mph 54% 0 in CLR
19:04 78.4 °F 61 °F 29.9 in East 10 mph 19.6 mph 55% 0 in CLR
19:09 78.4 °F 61 °F 29.9 in North 11.8 mph 16.8 mph 55% 0 in CLR
19:14 78.3 °F 61.3 °F 29.9 in East 12.5 mph 16.1 mph 56% 0 in CLR
19:19 78.3 °F 61.3 °F 29.9 in NNE 12.5 mph 20.7 mph 56% 0 in CLR
19:24 77.5 °F 60.6 °F 29.9 in NE 12.5 mph 19.6 mph 56% 0 in CLR
19:29 77.7 °F 61.3 °F 29.9 in NE 13.5 mph 16.1 mph 57% 0 in CLR
19:34 77.5 °F 61.2 °F 29.9 in ENE 13.5 mph 20.7 mph 57% 0 in CLR
19:39 77.5 °F 61.5 °F 29.9 in NE 12.5 mph 19.2 mph 58% 0 in CLR
19:44 77 °F 61.5 °F 29.9 in NE 11.8 mph 16.1 mph 59% 0 in CLR
19:49 76.8 °F 61.3 °F 29.9 in NE 11.8 mph 17.3 mph 59% 0 in CLR
19:54 76.6 °F 61.7 °F 29.9 in ENE 11.8 mph 20.7 mph 60% 0 in CLR
19:59 76.3 °F 61.3 °F 29.9 in NNW 12.3 mph 18.4 mph 60% 0 in CLR
20:04 76.3 °F 61.9 °F 29.9 in NE 11.8 mph 15 mph 61% 0 in CLR
20:09 76.5 °F 62.1 °F 29.9 in ENE 11.8 mph 17.3 mph 61% 0 in CLR
20:14 75.9 °F 62.1 °F 29.9 in NNE 10.7 mph 15 mph 62% 0 in CLR
20:19 75.7 °F 61.9 °F 29.9 in NE 10.7 mph 13.8 mph 62% 0 in CLR
20:24 75.6 °F 61.5 °F 29.9 in NE 10.7 mph 14 mph 62% 0 in CLR
20:29 75.4 °F 61.9 °F 29.9 in ENE 10.2 mph 13.7 mph 63% 0 in CLR
20:34 75.4 °F 62.4 °F 29.9 in NNE 10 mph 11.5 mph 64% 0 in CLR
20:39 75.2 °F 62.2 °F 29.9 in ENE 10 mph 13.8 mph 64% 0 in CLR
20:44 74.7 °F 62.1 °F 29.9 in NE 10 mph 15 mph 65% 0 in CLR
20:49 74.5 °F 62.4 °F 29.9 in East 10 mph 15 mph 66% 0 in CLR
20:54 74.5 °F 62.8 °F 29.9 in North 8.7 mph 8.1 mph 67% 0 in CLR
20:59 74.5 °F 62.4 °F 29.9 in NE 8.7 mph 11.5 mph 66% 0 in CLR
21:04 74.3 °F 62.6 °F 29.9 in NE 7.4 mph 11.5 mph 67% 0 in CLR
21:09 73.9 °F 62.2 °F 29.9 in NE 7.4 mph 13.8 mph 67% 0 in CLR
21:14 73.8 °F 62.4 °F 29.9 in NE 8.7 mph 13.8 mph 68% 0 in CLR
21:19 73.6 °F 61.9 °F 29.9 in ENE 8.7 mph 10.4 mph 67% 0 in CLR
21:24 73.4 °F 61.9 °F 29.9 in NNE 8.7 mph 10.4 mph 67% 0 in CLR
21:29 73.4 °F 61.9 °F 29.9 in NE 8.7 mph 6.9 mph 67% 0 in CLR
21:34 73.2 °F 61.2 °F 29.9 in North 8.7 mph 9.2 mph 66% 0 in CLR
21:39 73.2 °F 61.2 °F 29.9 in NE 5.9 mph 11.5 mph 66% 0 in CLR
21:44 73 °F 60.6 °F 29.9 in NE 6.2 mph 8.1 mph 65% 0 in CLR
21:49 72.9 °F 60.4 °F 29.9 in NE 6.2 mph 10.4 mph 65% 0 in CLR
21:54 72.9 °F 60.4 °F 29.9 in NE 6.2 mph 9.2 mph 65% 0 in CLR
21:59 72.7 °F 60.3 °F 29.9 in NNE 6.4 mph 6.2 mph 65% 0 in CLR
22:04 72.7 °F 60.3 °F 29.9 in NE 5.4 mph 8.1 mph 65% 0 in CLR
22:09 72.5 °F 60.1 °F 29.9 in NNE 5.4 mph 9.2 mph 65% 0 in CLR
22:14 72.3 °F 59.9 °F 29.9 in NE 5.9 mph 10.4 mph 65% 0 in CLR
22:19 72.3 °F 60.3 °F 29.9 in NE 5.9 mph 9.2 mph 66% 0 in CLR
22:24 72.1 °F 60.3 °F 29.9 in NE 5.9 mph 8.5 mph 66% 0 in CLR
22:29 72.1 °F 60.3 °F 29.9 in NE 6.2 mph 7.4 mph 66% 0 in CLR
22:34 72.1 °F 60.6 °F 29.9 in ENE 5.9 mph 9.2 mph 67% 0 in CLR
22:39 72.1 °F 60.6 °F 29.9 in NNE 5.9 mph 6.9 mph 67% 0 in CLR
22:44 72 °F 60.4 °F 29.9 in NE 5.9 mph 8.1 mph 67% 0 in CLR
22:49 71.8 °F 60.6 °F 29.9 in NE 4.7 mph 5.8 mph 68% 0 in CLR
22:54 71.6 °F 61 °F 29.9 in NE 4.7 mph 6.9 mph 69% 0 in CLR
22:59 71.4 °F 60.6 °F 29.9 in NE 4.7 mph 8.1 mph 69% 0 in CLR
23:04 71.2 °F 61 °F 29.9 in NE 5.2 mph 6.9 mph 70% 0 in CLR
23:09 71.2 °F 61 °F 29.9 in NE 5.2 mph 6.9 mph 70% 0 in CLR
23:14 71.1 °F 60.8 °F 29.9 in NE 5.4 mph 8.1 mph 70% 0 in CLR
23:19 71.1 °F 60.8 °F 29.9 in NE 5.4 mph 5.8 mph 70% 0 in CLR
23:24 71.1 °F 61.2 °F 29.9 in NE 5.4 mph 8.1 mph 71% 0 in CLR
23:29 71.1 °F 61.2 °F 29.9 in NE 4.3 mph 7.6 mph 71% 0 in CLR
23:34 70.9 °F 61 °F 29.9 in North 4.3 mph 5.8 mph 71% 0 in CLR
23:39 70.7 °F 61.2 °F 29.9 in North 4.7 mph 4.6 mph 72% 0 in CLR
23:44 70.5 °F 61.2 °F 29.9 in NE 4.7 mph 3.6 mph 72% 0 in CLR
23:49 70.5 °F 61.3 °F 29.9 in North 3.1 mph 4.6 mph 73% 0 in CLR
23:54 70.5 °F 61.3 °F 29.9 in NNE 3.1 mph 4.6 mph 73% 0 in CLR
23:59 70.3 °F 61.7 °F 29.9 in North 2.9 mph 4.6 mph 74% 0 in CLR
Murcia-Puente Tocinos, España
Compliments of Weather Underground - 2.5 mb

La estación de MeteoMurcia.com, publica sus datos en los siguientes proyectos:

Meteoclimatic www.awekas.at

W3Counter
Web Analytics